PWSweather.com
Personal Weather Stations
Station Observations
BANEKERE1
AntwerpenBE

AntwerpenBE

Lat: 51.2809101, Lon: 4.4202713

Elevation: 40

Station Type:

http://www.akker.be

Latest ConditionsUpdated 3:30:02 AM GMT+01:01 Wednesday, Sep 24, 2014
Currently Today's Max Today's Min Today's Average
Temperature 56.9°F13.8°C 57.5°F14.2°C 53.5°F11.9°C 56.1°F13.4°C
Dew Point 50.5°F10.3°C 50.7°F10.4°C 49.8°F9.9°C 50.2°F10.1°C
Winds 3.5 mph N5.6 kmh N 6.9 mph N11.1 kmh N - 2.6 mph 4.2 kmh
Wind Gusts 5.8 mph9.3 kmh 11.5 mph18.5 kmh - -
Humidity 79% 89% 76% 81%
Pressure 29.99 in1015.6 mb 30.04 in1017.3 mb 29.99 in1015.6 mb -
Hour Temp Dew Point Humidity Winds Wind Gusts Pressure Precip Precip Rate Daily Precip Total
03:30 AM 56.9°F13.8°C 50.5°F10.3°C 79% 3.5 mph N5.6 kmh N 5.8 mph9.3 kmh 29.99 in1015.6 mb 0.00 in0.0 mm 0.00 in/hr0.0 mm/hr 0.00 in0.0 mm
03:20 AM 56.9°F13.8°C 50.4°F10.2°C 79% 2.3 mph N3.7 kmh N 4.6 mph7.4 kmh 29.99 in1015.6 mb 0.00 in0.0 mm 0.00 in/hr0.0 mm/hr 0.00 in0.0 mm
03:10 AM 56.7°F13.7°C 50.3°F10.2°C 79% 3.5 mph N5.6 kmh N 3.5 mph5.6 kmh 29.99 in1015.6 mb 0.00 in0.0 mm 0.00 in/hr0.0 mm/hr 0.00 in0.0 mm
03:00 AM 56.6°F13.7°C 50.2°F10.1°C 79% 1.2 mph N1.9 kmh N 4.6 mph7.4 kmh 30.00 in1015.9 mb 0.00 in0.0 mm 0.00 in/hr0.0 mm/hr 0.00 in0.0 mm
02:50 AM 56.6°F13.7°C 50.2°F10.1°C 79% 3.5 mph N5.6 kmh N 6.9 mph11.1 kmh 30.00 in1015.9 mb 0.00 in0.0 mm 0.00 in/hr0.0 mm/hr 0.00 in0.0 mm
02:40 AM 56.7°F13.7°C 49.9°F9.9°C 78% 4.6 mph N7.4 kmh N 6.9 mph11.1 kmh 30.00 in1015.9 mb 0.00 in0.0 mm 0.00 in/hr0.0 mm/hr 0.00 in0.0 mm
02:30 AM 56.8°F13.8°C 50.0°F10.0°C 78% 4.6 mph N7.4 kmh N 9.2 mph14.8 kmh 30.00 in1015.9 mb 0.00 in0.0 mm 0.00 in/hr0.0 mm/hr 0.00 in0.0 mm
02:20 AM 56.9°F13.8°C 49.8°F9.9°C 77% 3.5 mph N5.6 kmh N 3.5 mph5.6 kmh 30.01 in1016.3 mb 0.00 in0.0 mm 0.00 in/hr0.0 mm/hr 0.00 in0.0 mm
02:10 AM 57.1°F13.9°C 50.0°F10.0°C 77% 4.6 mph N7.4 kmh N 6.9 mph11.1 kmh 30.01 in1016.3 mb 0.00 in0.0 mm 0.00 in/hr0.0 mm/hr 0.00 in0.0 mm
02:00 AM 57.3°F14.1°C 50.1°F10.1°C 77% 3.5 mph N5.6 kmh N 5.8 mph9.3 kmh 30.02 in1016.6 mb 0.00 in0.0 mm 0.00 in/hr0.0 mm/hr 0.00 in0.0 mm
01:50 AM 57.4°F14.1°C 49.9°F9.9°C 76% 3.5 mph N5.6 kmh N 4.6 mph7.4 kmh 30.02 in1016.6 mb 0.00 in0.0 mm 0.00 in/hr0.0 mm/hr 0.00 in0.0 mm
01:40 AM 57.5°F14.2°C 50.0°F10.0°C 76% 5.8 mph N9.3 kmh N 6.9 mph11.1 kmh 30.03 in1016.9 mb 0.00 in0.0 mm 0.00 in/hr0.0 mm/hr 0.00 in0.0 mm
01:30 AM 57.4°F14.1°C 50.2°F10.1°C 77% 4.6 mph N7.4 kmh N 10.4 mph16.7 kmh 30.03 in1016.9 mb 0.00 in0.0 mm 0.00 in/hr0.0 mm/hr 0.00 in0.0 mm
01:20 AM 56.8°F13.8°C 50.4°F10.2°C 79% 6.9 mph N11.1 kmh N 11.5 mph18.5 kmh 30.03 in1016.9 mb 0.00 in0.0 mm 0.00 in/hr0.0 mm/hr 0.00 in0.0 mm
01:10 AM 56.5°F13.6°C 50.4°F10.2°C 80% Calm Calm 1.2 mph1.9 kmh 30.03 in1016.9 mb 0.00 in0.0 mm 0.00 in/hr0.0 mm/hr 0.00 in0.0 mm
01:00 AM 55.6°F13.1°C 50.6°F10.3°C 83% 2.3 mph SE3.7 kmh SE 4.6 mph7.4 kmh 30.03 in1016.9 mb 0.00 in0.0 mm 0.00 in/hr0.0 mm/hr 0.00 in0.0 mm
12:50 AM 55.0°F12.8°C 50.6°F10.3°C 85% Calm Calm 1.2 mph1.9 kmh 30.03 in1016.9 mb 0.00 in0.0 mm 0.00 in/hr0.0 mm/hr 0.00 in0.0 mm
12:40 AM 54.2°F12.3°C 50.7°F10.4°C 88% Calm Calm -- 30.04 in1017.3 mb 0.00 in0.0 mm 0.00 in/hr0.0 mm/hr 0.00 in0.0 mm
12:30 AM 53.7°F12.1°C 50.3°F10.2°C 88% Calm Calm -- 30.04 in1017.3 mb 0.00 in0.0 mm 0.00 in/hr0.0 mm/hr 0.00 in0.0 mm
12:20 AM 53.6°F12.0°C 50.5°F10.3°C 89% Calm Calm -- 30.04 in1017.3 mb 0.00 in0.0 mm 0.00 in/hr0.0 mm/hr 0.00 in0.0 mm
12:10 AM 53.5°F11.9°C 50.3°F10.2°C 89% Calm Calm -- 30.04 in1017.3 mb 0.00 in0.0 mm 0.00 in/hr0.0 mm/hr 0.00 in0.0 mm
12:00 AM 53.5°F11.9°C 50.0°F10.0°C 88% Calm Calm -- 30.04 in1017.3 mb 0.00 in0.0 mm 0.00 in/hr0.0 mm/hr 0.00 in0.0 mm